Time;durP1;ratioP1;P1;durP2;ratioP2;P2;SDS_P1;SDS_P2;PMS_P1;PMS_P2;Temp;Humidity;BMP_temperature;BMP_pressure;BME280_temperature;BME280_humidity;BME280_pressure;Samples;Min_cycle;Max_cycle;Signal;HPM_P1;HPM_P2
2022/08/22 00:00:55;;;;;;;7.00;3.70;;;16.20;99.90;;;;;;5036269;28;20201;-74
2022/08/22 00:03:37;;;;;;;6.13;3.28;;;16.20;99.90;;;;;;5056431;28;20198;-74
2022/08/22 00:06:14;;;;;;;5.20;3.42;;;16.20;99.90;;;;;;5052855;28;20199;-74
2022/08/22 00:09:03;;;;;;;6.13;3.58;;;16.10;99.90;;;;;;5042041;28;20321;-75
2022/08/22 00:11:47;;;;;;;4.57;3.45;;;16.20;99.90;;;;;;5038592;28;20196;-74
2022/08/22 00:14:19;;;;;;;5.60;3.60;;;16.10;99.90;;;;;;5054682;28;20205;-74
2022/08/22 00:16:56;;;;;;;6.00;3.40;;;15.90;99.90;;;;;;5054698;28;20206;-74
2022/08/22 00:19:30;;;;;;;3.60;3.30;;;15.90;99.90;;;;;;5039510;28;20626;-74
2022/08/22 00:22:02;;;;;;;4.18;3.58;;;15.90;99.90;;;;;;5034067;28;20264;-75
2022/08/22 00:24:39;;;;;;;4.18;3.60;;;15.80;99.90;;;;;;5056404;28;20203;-74
2022/08/22 00:27:12;;;;;;;7.05;3.80;;;15.60;99.90;;;;;;5056742;28;20202;-74
2022/08/22 00:29:44;;;;;;;5.63;3.85;;;15.50;99.90;;;;;;5036753;28;20207;-74
2022/08/22 00:32:15;;;;;;;5.22;3.90;;;15.60;99.90;;;;;;5046442;28;20207;-74
2022/08/22 00:34:50;;;;;;;6.22;3.78;;;15.70;99.90;;;;;;5057251;28;20210;-74
2022/08/22 00:37:22;;;;;;;6.35;3.90;;;15.80;99.90;;;;;;5036976;28;20194;-74
2022/08/22 00:39:55;;;;;;;6.03;3.90;;;15.70;99.90;;;;;;5053975;28;20576;-74
2022/08/22 00:43:01;;;;;;;4.95;4.10;;;15.60;99.90;;;;;;5053256;28;20638;-74
2022/08/22 00:46:02;;;;;;;6.93;4.30;;;15.30;99.90;;;;;;5042965;28;20207;-74
2022/08/22 00:48:51;;;;;;;5.68;4.35;;;15.30;99.90;;;;;;5027304;28;20222;-74
2022/08/22 00:51:46;;;;;;;4.88;4.00;;;15.40;99.90;;;;;;5050358;28;20214;-74
2022/08/22 00:54:20;;;;;;;5.07;4.15;;;15.50;99.90;;;;;;5043579;28;20195;-75
2022/08/22 00:57:15;;;;;;;6.37;4.50;;;15.40;99.90;;;;;;5053952;28;20576;-75
2022/08/22 01:00:10;;;;;;;4.75;4.32;;;15.10;99.90;;;;;;5045421;28;20198;-74
2022/08/22 01:03:01;;;;;;;7.50;5.05;;;14.90;99.90;;;;;;5034185;28;20203;-74
2022/08/22 01:05:39;;;;;;;5.27;4.50;;;14.90;99.90;;;;;;5053108;28;20265;-74
2022/08/22 01:08:21;;;;;;;9.53;5.20;;;15.10;99.90;;;;;;5047755;28;20222;-74
2022/08/22 01:11:03;;;;;;;7.47;4.53;;;15.20;99.90;;;;;;5037399;28;20262;-74
2022/08/22 01:13:48;;;;;;;5.43;4.82;;;15.20;99.90;;;;;;5041681;28;20206;-74
2022/08/22 01:16:30;;;;;;;5.85;5.20;;;15.00;99.90;;;;;;5032663;28;20218;-74
2022/08/22 01:19:30;;;;;;;6.93;5.20;;;15.00;99.90;;;;;;5048820;28;20199;-74
2022/08/22 01:22:27;;;;;;;7.73;5.13;;;15.00;99.90;;;;;;5047838;28;20672;-75
2022/08/22 01:25:27;;;;;;;7.27;5.43;;;14.90;99.90;;;;;;5051378;28;20203;-74
2022/08/22 01:28:20;;;;;;;7.80;5.50;;;15.00;99.90;;;;;;5049141;28;20733;-74
2022/08/22 01:31:22;;;;;;;10.00;6.13;;;14.90;99.90;;;;;;5035637;28;20207;-74
2022/08/22 01:34:32;;;;;;;7.03;5.23;;;14.90;99.90;;;;;;5050863;28;20560;-74
2022/08/22 01:37:41;;;;;;;8.15;6.20;;;15.00;99.90;;;;;;5041244;28;20214;-74
2022/08/22 01:41:02;;;;;;;8.23;5.27;;;14.60;99.90;;;;;;5039455;28;20203;-74
2022/08/22 01:43:51;;;;;;;9.27;5.70;;;14.40;99.90;;;;;;4973730;28;20581;-74
2022/08/22 01:46:33;;;;;;;7.37;5.90;;;14.50;99.90;;;;;;5047694;28;20817;-74
2022/08/22 01:49:11;;;;;;;6.93;5.60;;;14.60;99.90;;;;;;5028841;28;20234;-75
2022/08/22 01:51:46;;;;;;;9.17;6.20;;;14.60;99.90;;;;;;5034050;28;20202;-75
2022/08/22 01:54:26;;;;;;;9.33;6.50;;;14.70;99.90;;;;;;5036178;28;20654;-74
2022/08/22 01:57:00;;;;;;;9.50;6.63;;;14.80;99.90;;;;;;5047503;28;20661;-74
2022/08/22 01:59:33;;;;;;;8.37;6.53;;;14.80;99.90;;;;;;5031886;28;20297;-74
2022/08/22 02:02:09;;;;;;;13.27;6.60;;;14.90;99.90;;;;;;5053545;28;20198;-74
2022/08/22 02:04:41;;;;;;;9.40;6.23;;;14.60;99.90;;;;;;5053423;28;20203;-74
2022/08/22 02:07:19;;;;;;;9.30;6.43;;;14.40;99.90;;;;;;5052971;28;20565;-74
2022/08/22 02:09:59;;;;;;;8.27;6.30;;;14.50;99.90;;;;;;5054626;28;20222;-74
2022/08/22 02:12:35;;;;;;;8.53;6.30;;;14.70;99.90;;;;;;5058467;28;20207;-75
2022/08/22 02:15:14;;;;;;;9.93;6.50;;;14.90;99.90;;;;;;5051938;28;20217;-74
2022/08/22 02:17:57;;;;;;;8.37;6.30;;;14.80;99.90;;;;;;5046044;28;20197;-74
2022/08/22 02:20:28;;;;;;;9.50;6.00;;;14.90;99.90;;;;;;5050699;28;20238;-75
2022/08/22 02:23:05;;;;;;;10.03;6.00;;;15.00;99.90;;;;;;5042639;28;20213;-74
2022/08/22 02:25:50;;;;;;;8.85;5.55;;;14.90;99.90;;;;;;5049708;28;20198;-74
2022/08/22 02:28:37;;;;;;;7.93;5.97;;;14.80;99.90;;;;;;5049877;28;20219;-74
2022/08/22 02:31:10;;;;;;;8.67;5.80;;;14.50;99.90;;;;;;5048252;28;20203;-74
2022/08/22 02:33:47;;;;;;;12.00;6.13;;;14.40;99.90;;;;;;5049421;28;20191;-74
2022/08/22 02:36:19;;;;;;;8.13;5.97;;;14.60;99.90;;;;;;5048007;28;20221;-75
2022/08/22 02:38:59;;;;;;;6.73;5.60;;;14.60;99.90;;;;;;5039464;28;20195;-74
2022/08/22 02:41:31;;;;;;;7.40;5.53;;;14.50;99.90;;;;;;5044594;28;20209;-74
2022/08/22 02:44:03;;;;;;;8.57;5.30;;;14.60;99.90;;;;;;5041174;28;20214;-67
2022/08/22 02:46:42;;;;;;;9.10;5.80;;;14.50;99.90;;;;;;5053522;28;20210;-70
2022/08/22 02:49:16;;;;;;;9.10;5.17;;;14.30;99.90;;;;;;5029830;28;20564;-70
2022/08/22 02:51:53;;;;;;;8.53;5.47;;;14.20;99.90;;;;;;5049591;28;20206;-70
2022/08/22 02:54:29;;;;;;;6.83;5.63;;;14.20;99.90;;;;;;5033960;28;20240;-70
2022/08/22 02:57:02;;;;;;;7.73;5.67;;;14.40;99.90;;;;;;5030414;28;20198;-70
2022/08/22 02:59:35;;;;;;;6.77;6.07;;;14.50;99.90;;;;;;5046608;28;20560;-70
2022/08/22 03:02:29;;;;;;;8.13;6.10;;;14.50;99.90;;;;;;5044311;28;20202;-70
2022/08/22 03:04:59;;;;;;;7.70;5.80;;;14.30;99.90;;;;;;5045502;28;20207;-70
2022/08/22 03:07:35;;;;;;;8.20;5.73;;;14.40;99.90;;;;;;5055268;28;20205;-70
2022/08/22 03:10:16;;;;;;;8.27;5.87;;;14.40;99.90;;;;;;5032601;28;20195;-71
2022/08/22 03:12:54;;;;;;;7.17;5.30;;;14.50;99.90;;;;;;5056439;28;20233;-71
2022/08/22 03:15:28;;;;;;;9.70;5.73;;;14.40;99.90;;;;;;5037240;28;20210;-71
2022/08/22 03:18:03;;;;;;;12.03;5.67;;;14.10;99.90;;;;;;5051556;28;20207;-71
2022/08/22 03:20:41;;;;;;;9.20;5.23;;;14.10;99.90;;;;;;5055517;28;20210;-70
2022/08/22 03:23:16;;;;;;;7.00;5.80;;;14.10;99.90;;;;;;5053527;28;20214;-71
2022/08/22 03:25:52;;;;;;;8.37;5.70;;;14.10;99.90;;;;;;5054385;28;20198;-70
2022/08/22 03:28:23;;;;;;;7.60;5.37;;;13.80;99.90;;;;;;5045403;28;20230;-70
2022/08/22 03:30:59;;;;;;;11.10;8.17;;;13.60;99.90;;;;;;5047495;28;20218;-70
2022/08/22 03:33:29;;;;;;;12.30;7.40;;;13.70;99.90;;;;;;5052521;28;20195;-70
2022/08/22 03:36:05;;;;;;;7.10;5.90;;;13.70;99.90;;;;;;5057047;28;20207;-70
2022/08/22 03:38:51;;;;;;;8.03;5.27;;;13.70;99.90;;;;;;5054385;28;20281;-70
2022/08/22 03:41:57;;;;;;;11.87;8.87;;;13.80;99.90;;;;;;5036426;28;20211;-70
2022/08/22 03:44:46;;;;;;;11.40;7.63;;;13.70;99.90;;;;;;5005939;28;20210;-70
2022/08/22 03:47:38;;;;;;;12.13;9.70;;;13.50;99.90;;;;;;5039497;28;20202;-70
2022/08/22 03:50:36;;;;;;;8.70;6.60;;;13.50;99.90;;;;;;5036242;28;20227;-70
2022/08/22 03:53:44;;;;;;;7.53;5.63;;;13.50;99.90;;;;;;5056631;28;20210;-70
2022/08/22 03:56:52;;;;;;;7.70;5.70;;;13.60;99.90;;;;;;5059634;28;20207;-70
2022/08/22 03:59:54;;;;;;;6.10;5.50;;;13.50;99.90;;;;;;5055893;28;20222;-71
2022/08/22 04:02:45;;;;;;;7.20;5.07;;;13.50;99.90;;;;;;5057647;28;20206;-70
2022/08/22 04:05:45;;;;;;;8.53;5.80;;;13.60;99.90;;;;;;5023489;28;20203;-71
2022/08/22 04:08:32;;;;;;;7.60;5.63;;;13.60;99.90;;;;;;5055286;28;20203;-71
2022/08/22 04:11:23;;;;;;;7.60;6.00;;;13.60;99.90;;;;;;5031471;28;20673;-70
2022/08/22 04:14:03;;;;;;;8.40;6.07;;;13.60;99.90;;;;;;5029197;28;20218;-71
2022/08/22 04:17:06;;;;;;;9.07;6.10;;;13.50;99.90;;;;;;5039034;28;20218;-71
2022/08/22 04:19:53;;;;;;;8.97;5.70;;;13.60;99.90;;;;;;5031342;28;20537;-71
2022/08/22 04:22:52;;;;;;;7.53;5.07;;;13.50;99.90;;;;;;5060593;28;20206;-71
2022/08/22 04:25:22;;;;;;;9.03;5.73;;;13.50;99.90;;;;;;5036293;28;20203;-71
2022/08/22 04:27:55;;;;;;;16.00;10.73;;;13.50;99.90;;;;;;5054466;28;20626;-71
2022/08/22 04:30:28;;;;;;;18.90;12.50;;;13.50;99.90;;;;;;5045902;28;20227;-71
2022/08/22 04:33:01;;;;;;;10.07;7.00;;;13.60;99.90;;;;;;5054033;28;20261;-70
2022/08/22 04:35:34;;;;;;;10.07;6.60;;;13.80;99.90;;;;;;5040748;28;20577;-71
2022/08/22 04:38:06;;;;;;;6.80;6.10;;;13.80;99.90;;;;;;5056185;28;20203;-71
2022/08/22 04:40:37;;;;;;;8.23;5.90;;;13.60;99.90;;;;;;5051729;28;20218;-71
2022/08/22 04:43:11;;;;;;;8.53;6.13;;;13.70;99.90;;;;;;5051714;28;20306;-71
2022/08/22 04:45:41;;;;;;;7.33;6.40;;;13.90;99.90;;;;;;5055862;28;20199;-71
2022/08/22 04:48:20;;;;;;;9.43;6.60;;;13.90;99.90;;;;;;5052906;28;20214;-71
2022/08/22 04:50:53;;;;;;;11.77;7.00;;;13.90;99.90;;;;;;5054724;28;20529;-71
2022/08/22 04:53:43;;;;;;;9.83;6.53;;;14.30;99.90;;;;;;5036279;28;20269;-71
2022/08/22 04:56:20;;;;;;;10.03;6.67;;;14.90;99.90;;;;;;5060784;28;20202;-71
2022/08/22 04:58:53;;;;;;;7.63;6.30;;;14.30;99.90;;;;;;5050691;28;20390;-71
2022/08/22 05:01:24;;;;;;;12.30;7.03;;;14.00;99.90;;;;;;5047009;28;20294;-71
2022/08/22 05:03:58;;;;;;;8.77;6.47;;;14.00;99.90;;;;;;5046227;28;20233;-71
2022/08/22 05:06:30;;;;;;;7.80;6.70;;;13.90;99.90;;;;;;5034583;28;20210;-71
2022/08/22 05:09:03;;;;;;;8.40;6.33;;;14.00;99.90;;;;;;5053566;28;20687;-71
2022/08/22 05:11:31;;;;;;;10.03;5.90;;;13.90;99.90;;;;;;5049916;28;20210;-71
2022/08/22 05:14:03;;;;;;;9.37;6.50;;;13.90;99.90;;;;;;5044167;28;20206;-71
2022/08/22 05:16:35;;;;;;;11.30;6.33;;;14.00;99.90;;;;;;5040640;28;20216;-71
2022/08/22 05:19:06;;;;;;;9.63;6.00;;;13.90;99.90;;;;;;5042118;28;20581;-71
2022/08/22 05:21:38;;;;;;;8.60;5.43;;;13.80;99.90;;;;;;5050601;28;20202;-71
2022/08/22 05:24:09;;;;;;;6.80;5.73;;;13.80;99.90;;;;;;5041900;28;20215;-71
2022/08/22 05:26:38;;;;;;;6.70;5.67;;;13.80;99.90;;;;;;5048297;28;20204;-71
2022/08/22 05:29:09;;;;;;;5.90;5.30;;;13.90;99.90;;;;;;5052497;28;20684;-71
2022/08/22 05:31:41;;;;;;;6.10;5.57;;;14.00;99.90;;;;;;5059267;28;20752;-71
2022/08/22 05:34:12;;;;;;;8.43;5.87;;;14.30;99.90;;;;;;5055654;28;20203;-71
2022/08/22 05:36:46;;;;;;;8.10;5.53;;;14.20;99.90;;;;;;5060351;28;20562;-71
2022/08/22 05:39:16;;;;;;;8.13;5.50;;;14.30;99.90;;;;;;5052383;28;20661;-71
2022/08/22 05:41:43;;;;;;;9.60;5.67;;;14.40;99.90;;;;;;5052093;28;20549;-71
2022/08/22 05:44:18;;;;;;;8.43;6.17;;;14.40;99.90;;;;;;5053348;28;20677;-71
2022/08/22 05:46:49;;;;;;;8.17;5.53;;;14.40;99.90;;;;;;5056569;28;20556;-71
2022/08/22 05:49:20;;;;;;;6.60;5.17;;;14.30;99.90;;;;;;5040415;28;20227;-71
2022/08/22 05:51:58;;;;;;;7.43;5.20;;;14.40;99.90;;;;;;5046171;28;20203;-71
2022/08/22 05:54:29;;;;;;;7.63;5.83;;;14.50;99.90;;;;;;5038846;28;20209;-71
2022/08/22 05:57:08;;;;;;;7.00;5.30;;;14.50;99.90;;;;;;5047280;28;20664;-71
2022/08/22 05:59:40;;;;;;;8.50;5.87;;;14.60;99.90;;;;;;5052341;28;20199;-71
2022/08/22 06:02:11;;;;;;;8.83;6.03;;;14.70;99.90;;;;;;5042189;28;20199;-71
2022/08/22 06:04:48;;;;;;;7.50;5.97;;;15.10;99.90;;;;;;5050059;28;20540;-67
2022/08/22 06:07:25;;;;;;;7.67;6.53;;;15.10;99.90;;;;;;5034751;28;20210;-67
2022/08/22 06:10:12;;;;;;;9.17;6.67;;;15.30;99.90;;;;;;5032555;28;20227;-67
2022/08/22 06:12:44;;;;;;;10.80;6.53;;;15.30;99.90;;;;;;5052775;28;20241;-67
2022/08/22 06:15:17;;;;;;;12.60;7.10;;;15.30;99.90;;;;;;5052702;28;20218;-67
2022/08/22 06:17:48;;;;;;;11.10;6.80;;;15.40;99.90;;;;;;5052005;28;20215;-67
2022/08/22 06:20:20;;;;;;;10.77;6.27;;;15.40;99.90;;;;;;5050753;28;20267;-67
2022/08/22 06:22:54;;;;;;;11.17;6.40;;;15.30;99.90;;;;;;5052320;28;20203;-70
2022/08/22 06:25:25;;;;;;;9.23;6.97;;;15.40;99.90;;;;;;5049121;28;20203;-75
2022/08/22 06:27:53;;;;;;;9.00;6.97;;;15.60;99.90;;;;;;5056129;28;20210;-75
2022/08/22 06:30:23;;;;;;;12.90;7.13;;;15.70;99.90;;;;;;5058282;28;20226;-70
2022/08/22 06:32:55;;;;;;;9.53;6.40;;;15.90;99.90;;;;;;5052724;28;20553;-74
2022/08/22 06:35:27;;;;;;;9.85;7.13;;;16.10;99.90;;;;;;5054730;28;20203;-67
2022/08/22 06:38:00;;;;;;;10.60;6.90;;;16.30;99.90;;;;;;5045044;28;20672;-70
2022/08/22 06:40:29;;;;;;;9.68;7.15;;;16.30;99.90;;;;;;5048413;28;20213;-68
2022/08/22 06:42:58;;;;;;;10.52;6.95;;;16.30;99.90;;;;;;5041592;28;20203;-71
2022/08/22 06:45:29;;;;;;;8.13;6.25;;;16.40;99.90;;;;;;5047600;28;20203;-75
2022/08/22 06:48:00;;;;;;;8.63;6.47;;;16.40;99.90;;;;;;5048287;28;20203;-68
2022/08/22 06:50:33;;;;;;;8.02;6.15;;;16.40;99.90;;;;;;5047402;28;20226;-68
2022/08/22 06:53:05;;;;;;;10.85;6.82;;;16.50;99.90;;;;;;5046852;28;20591;-68
2022/08/22 06:55:33;;;;;;;9.20;5.90;;;16.50;99.90;;;;;;5056363;28;20211;-68
2022/08/22 06:58:04;;;;;;;8.82;6.30;;;16.80;99.90;;;;;;5050436;28;20657;-68
2022/08/22 07:00:34;;;;;;;8.38;5.72;;;16.80;99.90;;;;;;5050719;28;20210;-68
2022/08/22 07:03:07;;;;;;;10.23;6.53;;;16.90;99.90;;;;;;5049014;28;20550;-68
2022/08/22 07:05:37;;;;;;;14.13;5.88;;;17.20;99.90;;;;;;5045499;28;20571;-68
2022/08/22 07:08:09;;;;;;;9.93;6.53;;;17.50;99.90;;;;;;5048496;28;20571;-68
2022/08/22 07:10:36;;;;;;;10.00;6.63;;;17.50;99.90;;;;;;5048756;28;20274;-68
2022/08/22 07:13:07;;;;;;;8.43;6.03;;;17.40;99.90;;;;;;5050254;28;20203;-68
2022/08/22 07:15:36;;;;;;;8.13;6.32;;;17.60;99.90;;;;;;5046443;28;20688;-69
2022/08/22 07:18:06;;;;;;;9.93;6.07;;;17.70;99.90;;;;;;5051284;28;20205;-68
2022/08/22 07:20:37;;;;;;;9.98;6.45;;;18.00;99.90;;;;;;5047472;28;20195;-68
2022/08/22 07:23:09;;;;;;;10.60;5.97;;;17.90;99.90;;;;;;5050362;28;20218;-68
2022/08/22 07:25:48;;;;;;;10.50;6.40;;;17.90;99.90;;;;;;5050449;28;20222;-68
2022/08/22 07:28:26;;;;;;;10.13;5.90;;;18.00;99.90;;;;;;5050226;28;20224;-68
2022/08/22 07:30:56;;;;;;;10.23;6.18;;;18.30;99.90;;;;;;5049168;28;20226;-68
2022/08/22 07:33:39;;;;;;;8.30;5.68;;;18.10;99.90;;;;;;5049134;28;20299;-68
2022/08/22 07:36:19;;;;;;;8.70;6.80;;;18.20;99.90;;;;;;5043797;28;20205;-68
2022/08/22 07:39:09;;;;;;;10.73;7.40;;;18.20;99.90;;;;;;5031774;28;20221;-68
2022/08/22 07:41:49;;;;;;;10.35;6.88;;;18.20;99.90;;;;;;5047873;28;20195;-68
2022/08/22 07:44:18;;;;;;;10.50;6.47;;;18.30;99.90;;;;;;5024835;28;20199;-68
2022/08/22 07:46:55;;;;;;;9.98;6.60;;;18.40;99.90;;;;;;5040760;28;20203;-68
2022/08/22 07:49:25;;;;;;;12.40;6.97;;;18.50;99.90;;;;;;5042428;28;20199;-68
2022/08/22 07:51:55;;;;;;;10.57;6.72;;;18.60;99.90;;;;;;5048446;28;20222;-68
2022/08/22 07:54:29;;;;;;;11.50;6.78;;;18.60;99.90;;;;;;5052894;28;20203;-68
2022/08/22 07:57:03;;;;;;;12.32;7.00;;;18.60;99.90;;;;;;5052155;28;20206;-68
2022/08/22 07:59:34;;;;;;;12.27;6.45;;;18.70;99.90;;;;;;5050024;28;20594;-68
2022/08/22 08:02:05;;;;;;;15.25;6.93;;;18.80;99.90;;;;;;5052446;28;20206;-68
2022/08/22 08:04:35;;;;;;;19.15;7.75;;;18.80;99.90;;;;;;5048536;28;20243;-68
2022/08/22 08:07:05;;;;;;;16.80;8.07;;;18.90;99.90;;;;;;5050366;28;20246;-68
2022/08/22 08:09:37;;;;;;;12.23;7.57;;;19.10;99.90;;;;;;5048786;28;20234;-68
2022/08/22 08:12:07;;;;;;;11.98;7.35;;;19.30;99.90;;;;;;5045832;28;20797;-68
2022/08/22 08:14:38;;;;;;;11.27;8.50;;;19.40;99.90;;;;;;5046282;28;20232;-68
2022/08/22 08:17:10;;;;;;;11.30;8.60;;;19.50;99.90;;;;;;5054745;28;20631;-68
2022/08/22 08:19:41;;;;;;;14.65;8.45;;;19.60;99.90;;;;;;5049461;28;20200;-68
2022/08/22 08:22:14;;;;;;;12.77;8.90;;;19.60;99.90;;;;;;5048618;28;20297;-68
2022/08/22 08:24:43;;;;;;;10.82;8.88;;;19.70;99.90;;;;;;5053041;28;20573;-68
2022/08/22 08:30:10;;;;;;;15.50;7.65;;;19.90;99.90;;;;;;5052414;28;20265;-68
2022/08/22 08:32:39;;;;;;;11.73;8.45;;;20.00;99.90;;;;;;5039997;28;20199;-68
2022/08/22 08:35:09;;;;;;;16.05;7.20;;;20.00;99.90;;;;;;5051087;28;20214;-67
2022/08/22 08:37:42;;;;;;;19.58;7.75;;;20.00;99.90;;;;;;5049212;28;20215;-67
2022/08/22 08:40:33;;;;;;;13.95;7.43;;;20.30;99.90;;;;;;5054534;28;20290;-67
2022/08/22 08:43:28;;;;;;;12.65;7.50;;;20.50;99.90;;;;;;5052637;28;20199;-67
2022/08/22 08:46:23;;;;;;;12.70;6.20;;;20.40;99.90;;;;;;5051231;28;20547;-67
2022/08/22 08:49:15;;;;;;;12.00;6.43;;;20.50;99.90;;;;;;5037473;28;20624;-67
2022/08/22 08:51:59;;;;;;;11.35;5.28;;;20.60;99.90;;;;;;5052009;28;20262;-67
2022/08/22 08:54:57;;;;;;;12.38;5.28;;;20.90;99.90;;;;;;5050129;28;20199;-67
2022/08/22 08:57:54;;;;;;;8.90;5.25;;;21.10;99.90;;;;;;5034506;28;20218;-67
2022/08/22 09:00:29;;;;;;;11.30;4.70;;;21.10;99.90;;;;;;5032530;28;20771;-67
2022/08/22 09:03:08;;;;;;;11.07;5.63;;;21.10;99.90;;;;;;5031245;28;20210;-67
2022/08/22 09:06:05;;;;;;;9.95;4.13;;;21.30;99.90;;;;;;5035935;28;20667;-67
2022/08/22 09:08:47;;;;;;;9.95;4.25;;;21.60;99.90;;;;;;5045353;28;20218;-67
2022/08/22 09:11:58;;;;;;;11.40;4.53;;;21.80;99.90;;;;;;5048464;28;20249;-67
2022/08/22 09:14:45;;;;;;;7.90;3.65;;;22.30;99.90;;;;;;5019001;28;20214;-67
2022/08/22 09:17:35;;;;;;;9.55;3.88;;;22.90;99.90;;;;;;5039485;28;20273;-67
2022/08/22 09:20:25;;;;;;;9.55;4.20;;;23.20;99.90;;;;;;5026156;28;20199;-67
2022/08/22 09:23:18;;;;;;;8.02;3.95;;;23.60;99.90;;;;;;5035523;28;20584;-67
2022/08/22 09:25:49;;;;;;;9.48;3.72;;;24.20;90.30;;;;;;5045303;28;20195;-67
2022/08/22 09:28:23;;;;;;;8.43;3.33;;;24.20;91.20;;;;;;5047166;28;20203;-67
2022/08/22 09:31:09;;;;;;;6.68;3.95;;;24.80;70.20;;;;;;5048301;28;20681;-67
2022/08/22 09:33:46;;;;;;;8.13;3.75;;;24.70;56.00;;;;;;5039100;28;20225;-67
2022/08/22 09:36:18;;;;;;;8.50;3.08;;;24.70;50.50;;;;;;5033902;28;20220;-67
2022/08/22 09:38:54;;;;;;;5.72;3.40;;;25.00;41.40;;;;;;5052347;28;20556;-67
2022/08/22 09:41:32;;;;;;;6.90;3.20;;;25.10;52.60;;;;;;5054336;28;20199;-67
2022/08/22 09:44:10;;;;;;;7.70;3.50;;;25.50;30.30;;;;;;5035921;28;20204;-68
2022/08/22 09:46:54;;;;;;;4.97;3.00;;;25.70;21.60;;;;;;5053112;28;20198;-67
2022/08/22 09:49:34;;;;;;;5.05;3.47;;;25.50;11.70;;;;;;5040488;28;20220;-68
2022/08/22 09:52:08;;;;;;;3.65;3.17;;;25.60;21.00;;;;;;5033318;28;20230;-68
2022/08/22 09:54:41;;;;;;;5.10;2.88;;;25.70;13.10;;;;;;5053450;28;20211;-68
2022/08/22 09:57:26;;;;;;;11.35;2.88;;;26.20;21.40;;;;;;5048449;28;20222;-68
2022/08/22 10:00:16;;;;;;;4.47;2.90;;;26.70;6.50;;;;;;5045717;28;20249;-68
2022/08/22 10:02:56;;;;;;;3.97;2.85;;;26.60;4.30;;;;;;5045727;28;20211;-68
2022/08/22 10:05:28;;;;;;;5.50;2.85;;;26.30;10.00;;;;;;5051760;28;20202;-68
2022/08/22 10:08:13;;;;;;;4.00;2.60;;;26.40;5.60;;;;;;5052303;28;20199;-68
2022/08/22 10:11:00;;;;;;;4.90;2.97;;;26.30;3.90;;;;;;5046687;28;20227;-68
2022/08/22 10:13:37;;;;;;;4.35;2.50;;;26.20;2.90;;;;;;5052462;28;20202;-68
2022/08/22 10:16:17;;;;;;;5.25;3.00;;;26.30;6.20;;;;;;5052105;28;20260;-68
2022/08/22 10:18:55;;;;;;;4.45;2.50;;;26.30;1.00;;;;;;5047162;28;20229;-68
2022/08/22 10:21:39;;;;;;;2.78;2.33;;;26.40;1.00;;;;;;5048196;28;20207;-67
2022/08/22 10:24:19;;;;;;;2.95;2.30;;;26.40;1.00;;;;;;5031864;28;20207;-68
2022/08/22 10:26:50;;;;;;;4.13;2.70;;;26.40;1.00;;;;;;5034436;28;20202;-67
2022/08/22 10:29:40;;;;;;;5.85;2.45;;;26.30;3.00;;;;;;5046033;28;20207;-67
2022/08/22 10:32:20;;;;;;;3.17;2.33;;;26.50;7.30;;;;;;5049037;28;20234;-68
2022/08/22 10:34:54;;;;;;;5.13;2.97;;;26.70;4.10;;;;;;5040085;28;20199;-68
2022/08/22 10:37:29;;;;;;;5.78;2.60;;;26.60;1.00;;;;;;5033848;28;20605;-67
2022/08/22 10:40:02;;;;;;;3.35;2.47;;;26.40;1.00;;;;;;5038999;28;20253;-67
2022/08/22 10:42:32;;;;;;;3.95;2.80;;;26.50;1.00;;;;;;5032597;28;20202;-68
2022/08/22 10:45:17;;;;;;;3.50;2.55;;;26.40;1.00;;;;;;5046066;28;20302;-67
2022/08/22 10:48:23;;;;;;;4.55;2.35;;;26.60;1.30;;;;;;5048981;28;20715;-68
2022/08/22 10:50:58;;;;;;;5.43;2.47;;;26.80;1.00;;;;;;5040546;28;20231;-68
2022/08/22 10:53:33;;;;;;;6.55;3.00;;;27.00;1.00;;;;;;5061721;28;20652;-67
2022/08/22 10:56:12;;;;;;;4.93;2.50;;;27.00;1.00;;;;;;5051836;28;20209;-68
2022/08/22 10:58:48;;;;;;;3.45;2.50;;;27.90;1.00;;;;;;5029871;28;20198;-68
2022/08/22 11:01:18;;;;;;;3.08;2.47;;;27.80;1.00;;;;;;5041758;28;20368;-68
2022/08/22 11:03:54;;;;;;;4.43;2.55;;;27.50;1.00;;;;;;5051216;28;20222;-68
2022/08/22 11:06:29;;;;;;;3.88;2.88;;;27.20;1.00;;;;;;5048996;28;20831;-68
2022/08/22 11:09:08;;;;;;;5.28;2.67;;;27.00;1.00;;;;;;5032955;28;20202;-68
2022/08/22 11:11:55;;;;;;;6.00;2.55;;;26.80;1.00;;;;;;5032647;28;20222;-68
2022/08/22 11:14:49;;;;;;;4.05;2.53;;;26.90;1.00;;;;;;5050615;28;20195;-68
2022/08/22 11:17:29;;;;;;;7.00;2.22;;;27.20;1.00;;;;;;5039570;28;20213;-68
2022/08/22 11:20:16;;;;;;;3.83;2.58;;;27.30;1.00;;;;;;5043034;28;20221;-68
2022/08/22 11:22:54;;;;;;;4.32;2.58;;;27.50;1.00;;;;;;5047496;28;20629;-68
2022/08/22 11:25:30;;;;;;;5.13;2.70;;;28.10;1.00;;;;;;5033551;28;20215;-68
2022/08/22 11:28:19;;;;;;;4.47;2.42;;;27.60;1.00;;;;;;5037197;28;20281;-68
2022/08/22 11:31:03;;;;;;;3.22;2.33;;;27.40;1.00;;;;;;5048711;28;20317;-67
2022/08/22 11:33:44;;;;;;;3.08;2.53;;;27.80;1.00;;;;;;5049302;28;20635;-68
2022/08/22 11:36:24;;;;;;;4.63;2.30;;;28.70;1.00;;;;;;5043153;28;20572;-68
2022/08/22 11:39:05;;;;;;;7.45;2.42;;;28.90;1.00;;;;;;5055052;28;20650;-68
2022/08/22 11:41:39;;;;;;;6.28;2.45;;;28.00;1.00;;;;;;5055187;28;20209;-68
2022/08/22 11:44:11;;;;;;;4.35;2.75;;;27.70;1.00;;;;;;5044200;28;20203;-68
2022/08/22 11:46:40;;;;;;;3.42;2.70;;;27.90;1.00;;;;;;5054260;28;20222;-67
2022/08/22 11:49:28;;;;;;;5.85;3.10;;;27.90;1.00;;;;;;5053356;28;20217;-67
2022/08/22 11:52:12;;;;;;;4.78;2.70;;;28.50;1.00;;;;;;5048851;28;20218;-68
2022/08/22 11:55:12;;;;;;;3.88;2.70;;;29.20;1.00;;;;;;5051092;28;20222;-69
2022/08/22 11:57:42;;;;;;;4.05;2.60;;;29.90;1.00;;;;;;5052368;28;20210;-69
2022/08/22 12:00:23;;;;;;;6.85;3.17;;;28.70;1.00;;;;;;5051299;28;21242;-68
2022/08/22 12:03:11;;;;;;;5.55;2.70;;;27.80;1.00;;;;;;5049699;28;20879;-68
2022/08/22 12:05:45;;;;;;;6.45;3.17;;;27.50;1.00;;;;;;5048357;28;20210;-68
2022/08/22 12:08:23;;;;;;;5.90;2.63;;;27.10;1.00;;;;;;5056186;28;20207;-68
2022/08/22 12:10:57;;;;;;;9.05;3.35;;;26.80;1.00;;;;;;5036236;28;20234;-68
2022/08/22 12:13:37;;;;;;;5.07;2.97;;;27.00;1.00;;;;;;5044411;28;20202;-68
2022/08/22 12:16:13;;;;;;;8.95;3.65;;;27.00;1.00;;;;;;5035490;28;20210;-68
2022/08/22 12:18:50;;;;;;;5.05;2.95;;;27.10;1.00;;;;;;5052835;28;20211;-68
2022/08/22 12:21:35;;;;;;;6.03;2.95;;;27.40;1.00;;;;;;5037967;28;20195;-69
2022/08/22 12:24:17;;;;;;;5.20;2.90;;;27.30;1.00;;;;;;5051593;28;20203;-69
2022/08/22 12:26:55;;;;;;;5.88;2.80;;;27.30;1.00;;;;;;5038472;28;20203;-68
2022/08/22 12:29:33;;;;;;;4.75;2.58;;;27.80;1.00;;;;;;5038285;28;20282;-68
2022/08/22 12:32:38;;;;;;;5.95;2.70;;;28.10;1.00;;;;;;5034677;28;20218;-68
2022/08/22 12:35:27;;;;;;;3.35;2.67;;;28.30;1.00;;;;;;5050813;28;20252;-68
2022/08/22 12:38:02;;;;;;;4.75;2.80;;;27.70;1.00;;;;;;5050322;28;20691;-68
2022/08/22 12:40:40;;;;;;;5.35;3.15;;;27.50;1.00;;;;;;5031123;28;20207;-68
2022/08/22 12:43:44;;;;;;;5.70;3.05;;;27.70;1.00;;;;;;5041493;28;20207;-68
2022/08/22 12:46:28;;;;;;;8.23;2.95;;;27.70;1.00;;;;;;5039403;28;20213;-68
2022/08/22 12:49:06;;;;;;;6.72;2.67;;;27.80;1.00;;;;;;5049504;28;20207;-68
2022/08/22 12:51:41;;;;;;;4.70;2.88;;;27.60;1.00;;;;;;5032283;28;20245;-68
2022/08/22 12:54:49;;;;;;;5.57;2.55;;;27.70;1.00;;;;;;5052523;28;20199;-68
2022/08/22 12:57:26;;;;;;;3.35;2.47;;;27.50;1.00;;;;;;5017754;28;20214;-68
2022/08/22 12:59:59;;;;;;;4.00;2.25;;;28.20;1.00;;;;;;5032457;28;20207;-68
2022/08/22 13:02:30;;;;;;;7.35;3.05;;;28.90;1.00;;;;;;5049314;28;20541;-68
2022/08/22 13:05:02;;;;;;;5.15;2.60;;;28.50;1.00;;;;;;5048991;28;20707;-68
2022/08/22 13:07:33;;;;;;;4.78;2.80;;;28.30;1.00;;;;;;5050769;28;20195;-68
2022/08/22 13:10:05;;;;;;;6.70;2.95;;;27.50;1.00;;;;;;5048511;28;20214;-67
2022/08/22 13:12:38;;;;;;;4.30;2.53;;;27.30;1.00;;;;;;5051880;28;20215;-67
2022/08/22 13:15:24;;;;;;;5.55;2.85;;;27.20;1.00;;;;;;5049656;28;20217;-67
2022/08/22 13:17:52;;;;;;;7.40;2.63;;;27.50;1.00;;;;;;5050571;28;20222;-67
2022/08/22 13:20:25;;;;;;;5.30;2.88;;;27.70;1.00;;;;;;5048230;28;20215;-67
2022/08/22 13:22:53;;;;;;;5.50;2.60;;;27.60;1.00;;;;;;5048900;28;20202;-68
2022/08/22 13:25:25;;;;;;;7.53;3.03;;;28.10;1.00;;;;;;5052348;28;20199;-68
2022/08/22 13:27:55;;;;;;;6.63;2.65;;;28.60;1.00;;;;;;5046732;28;20277;-68
2022/08/22 13:30:29;;;;;;;5.00;2.80;;;28.30;1.00;;;;;;5051622;28;20215;-68
2022/08/22 13:33:04;;;;;;;5.43;2.85;;;28.30;1.00;;;;;;5051274;28;20233;-68
2022/08/22 13:35:34;;;;;;;5.15;2.83;;;28.20;1.00;;;;;;5049786;28;20245;-68
2022/08/22 13:38:07;;;;;;;3.47;2.55;;;28.40;1.00;;;;;;5052373;28;20199;-67
2022/08/22 13:40:35;;;;;;;7.80;2.88;;;28.20;1.00;;;;;;5047390;28;20203;-68
2022/08/22 13:43:07;;;;;;;4.47;2.50;;;27.90;1.00;;;;;;5048456;28;20200;-68
2022/08/22 13:45:37;;;;;;;4.57;2.80;;;28.10;1.00;;;;;;5051129;28;20207;-68
2022/08/22 13:48:10;;;;;;;7.20;2.65;;;27.80;1.00;;;;;;5045784;28;20233;-68
2022/08/22 13:50:56;;;;;;;6.05;2.75;;;28.00;1.00;;;;;;5049889;28;20672;-68